Spielberg, Austria
Current Conditions -  °F | °C
As of 11:50 AM on Friday 19 Dec 2014 (Local Time) from LOWW Reporting Station
Few Clouds Few Clouds  
Wind Chill: 59°   Ceiling: Unl
Heat Index: 59°   Visibility: 6mi
Dew Point: 45°   Wind: 17mph
Humidity: 59%   Direction: 270°W
Pressure: 30.03"   Gusts: NA
Location:  48.5°N, 15.87°E
Report Text: LOWW 191050Z 27015KT 9999 FEW040 15/07 Q1017 NOSIG
Loading
Personal Weather Stations






























Interactive Weather Map New forecast layout! Learn more

10-Day Weather Forecast

Advertisements
Track Severe Weather on mobile